To modify the report, make a selection from each column below and re-run.

Report Type Graduation Filter Grade Filter Gender Distance

(Grade filter for indiv report.)


Course PR Report: Mt. Sac

The report below currently displays:

  • Individual PR's
  • Grads & Current Runners
  • All Grades
  • Girls
  • 2.93 miles
  • Grads & Current Runners
All Time Rank Runner Name Grad Year Time Pace PR Date PR Event # of
Races
Graph full race
history on course
(pick up to 15)
1 Sydney Morrow 2022 18:14 6:13 10/25/19 Mt. Sac Invitational 5
2 Helena Van Loan 2014 18:24 6:17 11/19/11 Southern Section Finals 8
3 Abigail Errington 2025 18:57.8 6:28 10/22/21 Mt. Sac Invitational 3
4 Anika Renken 2013 19:08 6:32 10/19/12 Mt. Sac Invitational 7
5 Claire Ryan 2006 19:14 6:34 11/19/05 Southern Section Finals 3
6 Amelie Geoffron 2025 19:17.3 6:35 11/20/21 Southern Section Finals 3
7 Emily Ye 2016 19:29 6:39 10/23/15 Mt. Sac Invitational 8
8 Brooklyn Robinson 2021 19:32 6:40 10/20/17 Mt. Sac Invitational 1
9 Catherine Messana 2009 19:36 6:41 11/11/06 Southern Section Prelims 3
10 Chloe Fata 2008 19:37 6:42 11/12/05 Southern Section Prelims 8
11 Cece Zhu 2012 19:43 6:44 10/21/11 Mt. Sac Invitational 4
12 Saidbh Byrne 2025 19:45 6:44 11/20/21 Southern Section Finals 3
13 Kaylee Anderson 2012 19:49 6:46 11/19/11 Southern Section Finals 6
14 Mai Koyama 2022 19:50 6:46 10/19/18 Mt. Sac Invitational 5
15 Elizabeth Bock 2019 19:56 6:48 10/19/18 Mt. Sac Invitational 5
16 Maddy Engelsman 2018 20:01 6:50 10/20/17 Mt. Sac Invitational 4
17 Bailey Wu 2018 20:05 6:51 10/20/17 Mt. Sac Invitational 3
18 Gabriela Rodriguez 2022 20:05.1 6:51 11/20/21 Southern Section Finals 4
19 Maaike Wielenga 2016 20:12 6:54 11/16/13 Southern Section Prelims 8
19 Lindsay Michels 2021 20:12 6:54 10/25/19 Mt. Sac Invitational 3
21 Fiona Bock 2016 20:14 6:54 11/16/13 Southern Section Prelims 6
22 Kerrigan Riley 2022 20:18.4 6:56 11/20/21 Southern Section Finals 3
23 Catheri Messana 2009 20:21 6:57 10/20/06 Mt. Sac Invitational 3
24 Jessica Cervantes 2007 20:24 6:58 11/11/06 Southern Section Prelims 3
25 Remeny White 2014 20:28 6:59 11/19/11 Southern Section Finals 6
26 Kayle Anderson 2012 20:29 6:59 10/23/09 Mt. Sac Invitational 2
27 Andrea Ramirez 2011 20:30 7:00 10/23/10 Mt. Sac Invitational 2
28 Taci Chin-robinson 2012 20:31 7:00 11/14/09 Southern Section Prelims 3
28 Robin Laird 2010 20:31 7:00 10/20/06 Mt. Sac Invitational 2
30 Sonja Fenske 2007 20:39 7:03 11/19/05 Southern Section Finals 5
31 Lindsey Calva 2019 20:44 7:05 10/20/17 Mt. Sac Invitational 3
31 Chin-robinson 2012 20:44 7:05 10/23/09 Mt. Sac Invitational 1
33 Nora Devita 2011 20:47 7:06 11/14/09 Southern Section Prelims 4
34 Liz Leonard 2007 20:51 7:07 11/19/05 Southern Section Finals 4
35 Jessic Cervantes 2007 20:54 7:08 10/20/06 Mt. Sac Invitational 3
36 Laura Lussier 2012 20:56 7:09 11/19/11 Southern Section Finals 5
36 Elizabeth Leonard 2007 20:56 7:09 11/11/06 Southern Section Prelims 1
38 Lilian Zhu 2022 20:58.3 7:09 10/22/21 Mt. Sac Invitational 3
39 Jessica Hitchcock 2013 20:59 7:10 11/10/12 Southern Section Prelims 7
40 Nicole Endacott 2011 21:01 7:10 11/14/09 Southern Section Prelims 5
41 Miranda Liu 2022 21:03.5 7:11 10/22/21 Mt. Sac Invitational 4
42 Aimee Fata 2010 21:06 7:12 11/14/09 Southern Section Prelims 5
43 Stacy Lee 2011 21:12 7:14 11/10/07 Southern Section Prelims 2
44 Madeline Chin 2013 21:16 7:15 10/23/10 Mt. Sac Invitational 4
44 A. J. Ramirez 2011 21:16 7:15 11/15/08 Southern Section Prelims 1
46 Alexa Esler 2016 21:17 7:16 10/25/13 Mt. Sac Invitational 2
47 Amelia Jarolim 2021 21:18 7:16 10/25/19 Mt. Sac Invitational 3
48 Belinda Yen 2008 21:19 7:17 11/19/05 Southern Section Finals 4
49 Katherine Conte 2017 21:20 7:17 11/15/14 Southern Section Prelims 2
49 Elizabet Leonard 2007 21:20 7:17 10/20/06 Mt. Sac Invitational 1
51 Briana Nunez 2016 21:21 7:17 10/23/15 Mt. Sac Invitational 6
52 Amy Choi 2015 21:22 7:18 11/10/12 Southern Section Prelims 3
53 Caroline Liu 2018 21:25 7:19 10/20/17 Mt. Sac Invitational 4
53 Jocelyn Lee 2010 21:25 7:19 10/20/06 Mt. Sac Invitational 3
55 Melina Chavez 2017 21:29 7:20 11/16/13 Southern Section Prelims 3
55 Paige Ostlund 2009 21:29 7:20 10/24/08 Mt. Sac Invitational 4
57 Sara Jan 2011 21:31 7:21 10/23/10 Mt. Sac Invitational 1
58 Kaile Fernandes 2023 21:31.1 7:21 10/22/21 Mt. Sac Invitational 2
59 Jade Roman 2011 21:34 7:22 11/15/08 Southern Section Prelims 3
60 Jessic Hitchcock 2013 21:38 7:23 10/23/09 Mt. Sac Invitational 1
61 Celeste Amaya 2018 21:42 7:24 10/20/17 Mt. Sac Invitational 1
61 Ariel White 2007 21:42 7:24 10/24/04 Mt. Sac Invitational 2
63 Paigue Oustlund 2009 21:46 7:26 11/11/06 Southern Section Prelims 1
64 Caitlin Enright 2007 21:49 7:27 11/11/06 Southern Section Prelims 3
65 Selena Renwick 2017 21:54 7:28 11/15/14 Southern Section Prelims 4
66 Amie Weber 2005 21:56 7:29 10/24/04 Mt. Sac Invitational 1
67 Abigail Shulman 2015 21:58 7:30 10/19/12 Mt. Sac Invitational 3
68 Tyler Brown 2011 21:59 7:30 11/10/07 Southern Section Prelims 2
69 Evelyn Beadle 2016 22:03 7:32 11/16/13 Southern Section Prelims 2
70 Sara Jan 2012 22:09 7:34 10/23/09 Mt. Sac Invitational 3
71 Sofia Humphrey 2025 22:14.8 7:36 10/22/21 Mt. Sac Invitational 1
72 Lily Round 2016 22:23 7:38 10/25/13 Mt. Sac Invitational 3
73 Ke Shao 2013 22:28 7:40 10/23/10 Mt. Sac Invitational 2
74 Luyang Zhang 2021 22:30 7:41 10/25/19 Mt. Sac Invitational 2
75 Quyen Ballagh 2020 22:32 7:41 10/20/17 Mt. Sac Invitational 2
76 Chloe Koo 2025 22:35.6 7:43 10/22/21 Mt. Sac Invitational 1
77 Zoe Detzel 2012 22:37 7:43 10/21/11 Mt. Sac Invitational 1
78 Maia Thomas 2016 22:39.6 7:44 10/24/14 Mt. Sac Invitational 1
79 Cindy Chan 2012 22:40 7:44 10/23/10 Mt. Sac Invitational 2
80 Kei Shao 2013 22:42 7:45 10/21/11 Mt. Sac Invitational 1
81 Isabel Barbera 2017 22:49 7:47 10/25/13 Mt. Sac Invitational 1
82 Camill Endacott 2012 22:50 7:48 10/23/09 Mt. Sac Invitational 1
83 Amber Gonzalez Pacheco 2020 22:55 7:49 10/20/17 Mt. Sac Invitational 4
83 Kathy Lui 2014 22:55 7:49 10/25/13 Mt. Sac Invitational 4
85 Eunice Im 2007 23:02 7:52 10/20/06 Mt. Sac Invitational 3
86 Kiana Dettman 2023 23:03.5 7:52 10/22/21 Mt. Sac Invitational 1
87 Abby Shulman 2015 23:08.1 7:54 10/24/14 Mt. Sac Invitational 1
88 Amber Laird 2013 23:09 7:54 10/23/10 Mt. Sac Invitational 3
88 Rachel Paik 2008 23:09 7:54 10/20/06 Mt. Sac Invitational 1
90 Kelly Wu 2021 23:11 7:55 10/20/17 Mt. Sac Invitational 1
90 Jessica Chung 2015 23:11 7:55 10/25/13 Mt. Sac Invitational 3
92 Marion Wood 2015 23:21.3 7:58 10/24/14 Mt. Sac Invitational 1
93 Alexis Velasco 2014 23:29 8:01 10/19/12 Mt. Sac Invitational 1
94 Maggie Liu 2015 23:36 8:03 10/21/11 Mt. Sac Invitational 3
95 Julia Santos 2025 23:37.3 8:04 10/22/21 Mt. Sac Invitational 1
96 Kate Feldman 2010 23:38 8:04 11/10/07 Southern Section Prelims 1
97 Alyssa Mohamadzade 2016 23:39 8:04 10/25/13 Mt. Sac Invitational 1
97 Claire Foster 2015 23:39 8:04 10/21/11 Mt. Sac Invitational 1
97 Ashley Moon 2013 23:39 8:04 10/23/10 Mt. Sac Invitational 2
100 Kira Gabriel 2015 23:49 8:08 10/21/11 Mt. Sac Invitational 2
101 Stephanie Warren 2015 23:55 8:10 10/19/12 Mt. Sac Invitational 2
102 Lauren Jones 2021 23:58 8:11 10/20/17 Mt. Sac Invitational 1
102 Alison Yamada 2007 23:58 8:11 10/21/05 Mt. Sac Invitational 1
104 Caroline Liebe 2020 23:59 8:11 10/20/17 Mt. Sac Invitational 2
105 Daniella Lat 2023 24:03 8:12 10/25/19 Mt. Sac Invitational 2
106 Sophia Arriola 2014 24:04 8:13 10/23/10 Mt. Sac Invitational 1
107 Sooji Hong 2012 24:05 8:13 10/23/09 Mt. Sac Invitational 1
108 Natali Lelieur 2018 24:06 8:14 10/20/17 Mt. Sac Invitational 3
108 Michelle Chu 2006 24:06 8:14 10/24/04 Mt. Sac Invitational 1
110 Rebecca Phan 2014 24:09 8:15 10/19/12 Mt. Sac Invitational 2
111 Lia Lohr 2012 24:10 8:15 10/23/10 Mt. Sac Invitational 4
112 Margaret Rose 2005 24:12 8:16 10/24/04 Mt. Sac Invitational 1
113 Marsha Kennedy 2007 24:14 8:16 10/24/04 Mt. Sac Invitational 2
114 A.j. Ramirez 2011 24:17 8:17 10/19/07 Mt. Sac Invitational 1
115 Priscilla Lee 2010 24:18 8:18 10/20/06 Mt. Sac Invitational 1
116 Ann Lloyd Jones 2009 24:25 8:20 10/21/05 Mt. Sac Invitational 1
117 Olivia Chiu 2016 24:32 8:22 10/25/13 Mt. Sac Invitational 2
118 Kate Feldmann 2012 24:33 8:23 10/23/09 Mt. Sac Invitational 1
119 Linda Bernal 2007 24:37 8:24 10/24/04 Mt. Sac Invitational 2
120 Kate Feldmann 2010 24:38 8:24 10/19/07 Mt. Sac Invitational 1
121 Misha Holtz 2014 24:41 8:25 10/21/11 Mt. Sac Invitational 1
122 Allison Yu 2006 24:43 8:26 10/21/05 Mt. Sac Invitational 1
123 Tei Park 2017 24:51 8:29 10/25/13 Mt. Sac Invitational 1
124 Jessica Santos 2013 24:53 8:30 10/19/12 Mt. Sac Invitational 1
125 Alys Mohamadzaden 2016 24:54 8:30 10/19/12 Mt. Sac Invitational 1
126 Andrea Seet 2014 25:03 8:33 10/21/11 Mt. Sac Invitational 1
127 Mel Christensen 2009 25:05 8:34 10/21/05 Mt. Sac Invitational 1
128 Kristina Fenske 2007 25:10 8:35 10/24/04 Mt. Sac Invitational 1
129 Emily Gin 2017 25:14 8:37 10/25/13 Mt. Sac Invitational 2
130 Amber Clark 2007 25:16 8:37 10/21/05 Mt. Sac Invitational 2
131 Sabrina Sanchez 2014 25:19 8:38 10/23/10 Mt. Sac Invitational 1
132 Melanie Romo 2025 25:20.6 8:39 10/22/21 Mt. Sac Invitational 1
133 Karen Zhu 2016 25:21 8:39 10/19/12 Mt. Sac Invitational 1
134 Diana Perea 2022 25:22 8:39 10/19/18 Mt. Sac Invitational 2
134 Catalina Lee 2011 25:22 8:39 10/24/08 Mt. Sac Invitational 1
136 Aria Argus 2023 25:22.6 8:40 10/22/21 Mt. Sac Invitational 1
137 Tiffany Show 2012 25:24 8:40 10/21/11 Mt. Sac Invitational 1
138 Mallor Downing 2011 25:26 8:41 10/19/07 Mt. Sac Invitational 2
139 Tara Atkinson 2008 25:27 8:41 10/24/04 Mt. Sac Invitational 1
140 Kevin Lui 2009 25:29 8:42 10/19/07 Mt. Sac Invitational 1
140 Maya Gonzalez-Pacheco 2023 25:29 8:42 10/25/19 Mt. Sac Invitational 1
142 Sarah Kang 2022 25:30 8:42 10/19/18 Mt. Sac Invitational 2
143 Katherine Ngan 2015 25:35 8:44 10/21/11 Mt. Sac Invitational 2
144 Emma Noonan 2025 25:40.2 8:46 10/22/21 Mt. Sac Invitational 1
145 Vesta Javaheri 2013 25:42 8:46 10/23/10 Mt. Sac Invitational 2
146 Alicia Wilgoren 2023 25:48 8:48 10/25/19 Mt. Sac Invitational 1
147 Sydney Lagarce 2023 25:49 8:49 10/25/19 Mt. Sac Invitational 1
148 Kate Lee 2020 25:54 8:50 10/21/16 Mt. Sac Invitational 1
148 Alyssa Yamane 2006 25:54 8:50 10/24/04 Mt. Sac Invitational 1
150 Mackenzie Chang 2013 25:56 8:51 10/23/10 Mt. Sac Invitational 2
150 Mackenzi Chang 2013 25:56 8:51 10/23/09 Mt. Sac Invitational 1
152 Destiny Rivera 2020 25:57 8:51 10/19/18 Mt. Sac Invitational 1
153 Helen Lopez 2007 25:59 8:52 10/20/06 Mt. Sac Invitational 1
154 Claire Wang 2024 25:59.3 8:52 10/22/21 Mt. Sac Invitational 1
155 Katherine Uriarte 2015 26:04 8:54 10/19/12 Mt. Sac Invitational 2
156 Dana Lin 2020 26:09 8:55 10/21/16 Mt. Sac Invitational 1
157 Franny Cross 2018 26:15 8:58 10/20/17 Mt. Sac Invitational 2
158 Alana Ballagh 2018 26:17 8:58 10/20/17 Mt. Sac Invitational 2
159 Kathele Bennett 2008 26:25 9:01 10/19/07 Mt. Sac Invitational 1
160 Susan Rodriguez 2018 26:31 9:03 10/20/17 Mt. Sac Invitational 1
161 Melissa Hom 2007 26:32 9:03 10/24/04 Mt. Sac Invitational 1
162 Grace Shim 2006 26:33 9:04 10/24/04 Mt. Sac Invitational 1
163 Elaine Hong 2012 26:37 9:05 10/21/11 Mt. Sac Invitational 1
164 Laura Ho 2009 26:40 9:06 10/21/05 Mt. Sac Invitational 1
165 Quincy Sakai 2024 26:42.3 9:07 10/22/21 Mt. Sac Invitational 1
166 Liz Baroi 2010 26:44 9:07 10/20/06 Mt. Sac Invitational 1
167 Yidi Su 2006 26:45 9:08 10/21/05 Mt. Sac Invitational 2
168 Briana Krajewski 2009 26:50 9:09 10/21/05 Mt. Sac Invitational 2
169 Cameron Chang 2017 26:51 9:10 10/25/13 Mt. Sac Invitational 2
169 T Chin Robinson 2012 26:51 9:10 10/24/08 Mt. Sac Invitational 1
171 Camill Endacott 2011 26:53 9:11 10/19/07 Mt. Sac Invitational 1
172 Christa Palige 2010 26:56 9:12 10/19/07 Mt. Sac Invitational 2
173 Samanth Batman 2006 27:12 9:17 10/24/04 Mt. Sac Invitational 1
174 Diana Kim 2012 27:14 9:18 10/23/10 Mt. Sac Invitational 1
174 Ellen Chow 2006 27:14 9:18 10/24/04 Mt. Sac Invitational 2
176 Jackie Takarabe 2019 27:17 9:19 10/21/16 Mt. Sac Invitational 1
177 Lauren Sharkey 2018 27:20 9:20 10/21/16 Mt. Sac Invitational 2
178 Katelyn Moreno 2010 27:24 9:21 10/24/08 Mt. Sac Invitational 1
179 Tru Pierone 2015 27:35 9:25 10/19/12 Mt. Sac Invitational 1
180 Sheila Kendall 2010 27:37 9:26 10/24/08 Mt. Sac Invitational 1
181 Ariadne Lyon 2011 27:43 9:28 10/19/07 Mt. Sac Invitational 2
182 Christina Yu 2005 27:48 9:29 10/24/04 Mt. Sac Invitational 1
183 Clarissa Paik 2012 27:52 9:31 10/24/08 Mt. Sac Invitational 1
184 Priscilla Hur 2013 27:53 9:31 10/21/11 Mt. Sac Invitational 2
185 Erica Barraza 2009 27:55 9:32 10/20/06 Mt. Sac Invitational 1
186 Arianne Jong 2006 28:06 9:35 10/21/05 Mt. Sac Invitational 1
187 Monica Amini 2011 28:10 9:37 10/24/08 Mt. Sac Invitational 1
188 Virginia Wei 2006 28:21 9:41 10/21/05 Mt. Sac Invitational 1
189 Susan Oh 2008 28:23 9:41 10/20/06 Mt. Sac Invitational 1
190 Helena Fu 2018 28:25 9:42 10/21/16 Mt. Sac Invitational 1
190 Erica Ehrlich 2010 28:25 9:42 10/20/06 Mt. Sac Invitational 1
192 Christine Roh 2016 28:30 9:44 10/19/12 Mt. Sac Invitational 1
193 Lily Dorn 2012 28:33 9:45 10/23/09 Mt. Sac Invitational 1
193 Lili Dorn 2011 28:33 9:45 10/19/07 Mt. Sac Invitational 1
195 Rebecca Li 2008 28:35 9:45 10/21/05 Mt. Sac Invitational 1
196 Maggie Ching 2008 28:55 9:52 10/21/05 Mt. Sac Invitational 1
197 Carrie Tan 2006 28:58 9:53 10/24/04 Mt. Sac Invitational 1
198 Kathlee Bennett 2008 29:00 9:54 10/20/06 Mt. Sac Invitational 1
199 Ellie Nakamura 2024 29:04.9 9:56 10/22/21 Mt. Sac Invitational 1
200 Patricia Carrillo 2011 29:21 10:01 10/24/08 Mt. Sac Invitational 1
201 Hannah Sanders 2015 29:26 10:03 10/19/12 Mt. Sac Invitational 1
202 Victoria Limon 2015 29:49 10:11 10/21/11 Mt. Sac Invitational 1
203 June Kim 2013 29:57 10:13 10/21/11 Mt. Sac Invitational 1
204 Esther Tanagho1 2024 30:52.9 10:32 10/22/21 Mt. Sac Invitational 1
205 Keren Im 2012 31:00 10:35 10/23/09 Mt. Sac Invitational 1
All Time Rank Runner Name Grad Year Time Pace PR Date PR Event # of
Races
Graph full race
history on course
(pick up to 7)

Note: All columns are sortable by clicking on the column heading.